Time;durP1;ratioP1;P1;durP2;ratioP2;P2;SDS_P1;SDS_P2;PMS_P1;PMS_P2;Temp;Humidity;BMP_temperature;BMP_pressure;BME280_temperature;BME280_humidity;BME280_pressure;Samples;Min_cycle;Max_cycle;Signal;HPM_P1;HPM_P2
2021/12/14 00:02:10;;;;;;;;;;;;;;;9.42;100.00;100115.38;5027857;28;19917;-63
2021/12/14 00:04:37;;;;;;;;;;;;;;;9.79;100.00;100120.13;5028606;28;19924;-63
2021/12/14 00:07:03;;;;;;;;;;;;;;;10.02;100.00;100122.44;5028051;28;19924;-63
2021/12/14 00:09:34;;;;;;;;;;;;;;;9.93;100.00;100116.56;5027959;28;19924;-63
2021/12/14 00:17:12;;;;;;;;;;;;;;;9.67;100.00;100111.69;5031745;28;19972;-63
2021/12/14 00:19:39;;;;;;;;;;;;;;;9.95;100.00;100117.41;5027428;28;20377;-63
2021/12/14 00:22:18;;;;;;;;;;;;;;;9.72;100.00;100122.78;5027396;28;20393;-63
2021/12/14 00:24:44;;;;;;;;;;;;;;;9.78;100.00;100130.44;5026964;28;19947;-63
2021/12/14 00:27:11;;;;;;;;;;;;;;;9.62;100.00;100127.16;5004440;28;19913;-63
2021/12/14 00:29:42;;;;;;;;;;;;;;;9.82;100.00;100119.25;5027598;28;19924;-63
2021/12/14 00:32:10;;;;;;;;;;;;;;;9.84;100.00;100120.06;5028028;28;20396;-63
2021/12/14 00:34:39;;;;;;;;;;;;;;;9.63;100.00;100108.31;5005767;28;20336;-63
2021/12/14 00:37:06;;;;;;;;;;;;;;;9.67;100.00;100114.25;5028378;28;19932;-63
2021/12/14 00:39:31;;;;;;;;;;;;;;;9.61;100.00;100121.16;5027403;28;20004;-63
2021/12/14 00:41:57;;;;;;;;;;;;;;;9.75;100.00;100112.47;5028593;28;20007;-63
2021/12/14 00:44:22;;;;;;;;;;;;;;;9.72;100.00;100112.50;5028822;28;19921;-63
2021/12/14 00:46:48;;;;;;;;;;;;;;;9.42;100.00;100104.22;5028109;28;19936;-63
2021/12/14 00:49:13;;;;;;;;;;;;;;;9.42;100.00;100102.50;5006406;28;19921;-63
2021/12/14 00:51:39;;;;;;;;;;;;;;;9.27;100.00;100099.22;5028433;28;20282;-63
2021/12/14 00:54:06;;;;;;;;;;;;;;;9.07;100.00;100102.81;5028059;28;19917;-63
2021/12/14 00:56:33;;;;;;;;;;;;;;;9.09;100.00;100115.66;5028240;28;20410;-63
2021/12/14 00:59:00;;;;;;;;;;;;;;;8.86;100.00;100102.97;5028961;28;20386;-63
2021/12/14 01:01:26;;;;;;;;;;;;;;;9.03;100.00;100106.25;5005659;28;19920;-63
2021/12/14 01:03:53;;;;;;;;;;;;;;;9.15;100.00;100101.03;5027806;28;20010;-63
2021/12/14 01:06:19;;;;;;;;;;;;;;;8.97;100.00;100101.19;5027733;28;19913;-63
2021/12/14 01:08:45;;;;;;;;;;;;;;;9.10;100.00;100107.94;5027560;28;19917;-63
2021/12/14 01:11:14;;;;;;;;;;;;;;;9.20;100.00;100104.41;5005584;28;20354;-63
2021/12/14 01:13:44;;;;;;;;;;;;;;;9.15;100.00;100100.19;5026026;28;19975;-63
2021/12/14 01:16:19;;;;;;;;;;;;;;;9.06;100.00;100101.13;5027768;28;19917;-64
2021/12/14 01:18:50;;;;;;;;;;;;;;;9.03;100.00;100106.25;5027887;28;20000;-63
2021/12/14 01:23:46;;;;;;;;;;;;;;;9.18;100.00;100089.88;5026723;28;19924;-63
2021/12/14 01:26:15;;;;;;;;;;;;;;;9.31;100.00;100088.06;5027275;28;19917;-62
2021/12/14 01:28:42;;;;;;;;;;;;;;;9.43;100.00;100087.91;5026263;28;19917;-63
2021/12/14 01:31:19;;;;;;;;;;;;;;;9.32;100.00;100087.16;5027433;28;19923;-63
2021/12/14 01:33:46;;;;;;;;;;;;;;;8.85;100.00;100080.72;5027271;28;20012;-62
2021/12/14 01:36:24;;;;;;;;;;;;;;;8.93;100.00;100084.09;5031415;28;19925;-63
2021/12/14 01:39:10;;;;;;;;;;;;;;;9.08;100.00;100091.69;5031049;28;19917;-62
2021/12/14 01:41:36;;;;;;;;;;;;;;;9.24;100.00;100083.81;5011302;28;19917;-64
2021/12/14 01:44:01;;;;;;;;;;;;;;;9.15;100.00;100083.03;5031385;28;19913;-63
2021/12/14 01:46:38;;;;;;;;;;;;;;;8.90;100.00;100066.13;5007762;28;19935;-63
2021/12/14 01:49:07;;;;;;;;;;;;;;;8.71;100.00;100067.97;5031103;28;19925;-63
2021/12/14 01:51:33;;;;;;;;;;;;;;;8.88;100.00;100080.72;5005452;28;19917;-63
2021/12/14 01:53:58;;;;;;;;;;;;;;;8.87;100.00;100079.88;5030184;28;19928;-63
2021/12/14 01:56:25;;;;;;;;;;;;;;;8.96;100.00;100084.06;5030796;28;19925;-63
2021/12/14 01:58:53;;;;;;;;;;;;;;;9.00;100.00;100075.47;5030299;28;20453;-63
2021/12/14 02:01:20;;;;;;;;;;;;;;;9.29;100.00;100079.50;5004657;28;19917;-63
2021/12/14 02:03:49;;;;;;;;;;;;;;;9.10;100.00;100077.09;5030402;28;19913;-63
2021/12/14 02:06:16;;;;;;;;;;;;;;;9.07;100.00;100071.97;5030482;28;19925;-63
2021/12/14 02:08:42;;;;;;;;;;;;;;;9.21;100.00;100070.16;5028965;28;19921;-64
2021/12/14 02:11:07;;;;;;;;;;;;;;;9.10;100.00;100071.97;5031149;28;19917;-63
2021/12/14 02:13:40;;;;;;;;;;;;;;;9.19;100.00;100077.03;5031280;28;19968;-64
2021/12/14 02:16:06;;;;;;;;;;;;;;;9.49;100.00;100079.28;5006797;28;19974;-64
2021/12/14 02:18:32;;;;;;;;;;;;;;;9.39;100.00;100063.09;5029721;28;20337;-63
2021/12/14 02:20:59;;;;;;;;;;;;;;;9.06;100.00;100054.84;5030683;28;19929;-63
2021/12/14 02:23:25;;;;;;;;;;;;;;;9.12;100.00;100039.41;5030482;28;19952;-63
2021/12/14 02:25:50;;;;;;;;;;;;;;;9.13;100.00;100046.22;5030525;28;19979;-63
2021/12/14 02:28:18;;;;;;;;;;;;;;;9.28;100.00;100042.63;5027115;23;19929;-77
2021/12/14 02:30:44;;;;;;;;;;;;;;;9.24;100.00;100043.56;5001606;28;19924;-77
2021/12/14 02:33:11;;;;;;;;;;;;;;;9.31;100.00;100044.34;4994530;28;19917;-77
2021/12/14 02:35:36;;;;;;;;;;;;;;;9.16;100.00;100050.47;5005571;28;19917;-76
2021/12/14 02:38:03;;;;;;;;;;;;;;;9.11;100.00;100037.69;5014788;28;19968;-77
2021/12/14 02:40:53;;;;;;;;;;;;;;;9.27;100.00;100024.69;4998487;28;19921;-76
2021/12/14 02:43:17;;;;;;;;;;;;;;;8.90;100.00;100007.06;5015854;28;19936;-77
2021/12/14 02:45:43;;;;;;;;;;;;;;;8.68;100.00;99998.66;4996812;28;19913;-76
2021/12/14 02:48:08;;;;;;;;;;;;;;;9.08;100.00;100006.88;5015365;28;20008;-77
2021/12/14 02:50:34;;;;;;;;;;;;;;;9.12;100.00;100008.56;5014823;28;19918;-76
2021/12/14 02:52:59;;;;;;;;;;;;;;;9.32;100.00;100000.63;5003465;28;20292;-77
2021/12/14 02:55:26;;;;;;;;;;;;;;;9.34;100.00;99998.03;5004657;28;19928;-77
2021/12/14 02:57:53;;;;;;;;;;;;;;;9.24;100.00;99987.03;4983138;28;19963;-76
2021/12/14 03:00:22;;;;;;;;;;;;;;;9.37;100.00;99998.00;5000582;28;19913;-76
2021/12/14 03:02:48;;;;;;;;;;;;;;;9.20;100.00;99985.34;4997999;28;20157;-76
2021/12/14 03:05:25;;;;;;;;;;;;;;;9.20;100.00;99970.75;4997803;28;19913;-76
2021/12/14 03:08:01;;;;;;;;;;;;;;;9.14;100.00;99960.53;5018801;28;20268;-77
2021/12/14 03:10:50;;;;;;;;;;;;;;;9.11;100.00;99973.44;5000907;28;19964;-77
2021/12/14 03:13:16;;;;;;;;;;;;;;;9.37;100.00;99972.28;5009685;28;20394;-77
2021/12/14 03:15:50;;;;;;;;;;;;;;;9.18;100.00;99974.22;5003351;28;19989;-76
2021/12/14 03:18:17;;;;;;;;;;;;;;;8.94;100.00;99963.34;4997136;28;19914;-77
2021/12/14 03:20:48;;;;;;;;;;;;;;;8.68;100.00;99961.00;5001061;28;20393;-77
2021/12/14 03:23:18;;;;;;;;;;;;;;;8.95;100.00;99977.88;5006772;28;19914;-76
2021/12/14 03:25:45;;;;;;;;;;;;;;;8.96;100.00;99960.72;5012565;28;19922;-78
2021/12/14 03:28:11;;;;;;;;;;;;;;;9.08;100.00;99970.91;5009018;28;20383;-77
2021/12/14 03:30:50;;;;;;;;;;;;;;;9.26;100.00;99984.41;5012587;28;20012;-77
2021/12/14 03:33:24;;;;;;;;;;;;;;;8.75;100.00;99985.75;5004247;28;19987;-77
2021/12/14 03:35:55;;;;;;;;;;;;;;;8.36;100.00;100000.56;4996723;28;19925;-78
2021/12/14 03:38:20;;;;;;;;;;;;;;;8.89;100.00;100002.75;4996265;28;19917;-76
2021/12/14 03:40:54;;;;;;;;;;;;;;;8.66;100.00;99985.84;5014096;28;20080;-77
2021/12/14 03:43:19;;;;;;;;;;;;;;;8.82;100.00;99983.13;5013237;28;19940;-76
2021/12/14 03:45:44;;;;;;;;;;;;;;;9.04;100.00;99984.66;4996933;28;19914;-77
2021/12/14 03:48:10;;;;;;;;;;;;;;;9.03;100.00;99982.91;4980373;28;20396;-77
2021/12/14 03:50:40;;;;;;;;;;;;;;;8.92;100.00;99993.31;4995908;28;19918;-76
2021/12/14 03:53:05;;;;;;;;;;;;;;;8.47;100.00;100003.09;4996713;28;20286;-77
2021/12/14 03:55:32;;;;;;;;;;;;;;;8.59;100.00;100009.84;4995797;28;19917;-76
2021/12/14 03:57:58;;;;;;;;;;;;;;;8.31;100.00;100022.88;5012634;28;19913;-77
2021/12/14 04:00:25;;;;;;;;;;;;;;;8.73;100.00;100025.16;5013042;28;19914;-77
2021/12/14 04:02:52;;;;;;;;;;;;;;;8.61;100.00;100028.69;5012474;28;19920;-77
2021/12/14 04:05:17;;;;;;;;;;;;;;;8.85;100.00;100034.47;4996413;28;20298;-76
2021/12/14 04:07:43;;;;;;;;;;;;;;;9.04;100.00;100025.75;5008156;28;19914;-77
2021/12/14 04:10:10;;;;;;;;;;;;;;;8.75;100.00;100029.41;5012696;28;19913;-77
2021/12/14 04:12:35;;;;;;;;;;;;;;;8.87;100.00;100038.75;4995533;28;20036;-76
2021/12/14 04:15:01;;;;;;;;;;;;;;;8.47;100.00;100043.34;5011932;28;20052;-77
2021/12/14 04:17:28;;;;;;;;;;;;;;;8.83;100.00;100054.22;5013264;28;19913;-78
2021/12/14 04:19:53;;;;;;;;;;;;;;;8.29;100.00;100060.50;4995725;28;19913;-77
2021/12/14 04:22:20;;;;;;;;;;;;;;;8.31;100.00;100069.06;5013180;28;20141;-77
2021/12/14 04:24:48;;;;;;;;;;;;;;;8.23;100.00;100075.09;4995747;28;19936;-77
2021/12/14 04:27:15;;;;;;;;;;;;;;;8.67;100.00;100082.56;5002495;28;19921;-77
2021/12/14 04:29:41;;;;;;;;;;;;;;;8.95;100.00;100069.50;5024545;28;19919;-77
2021/12/14 04:32:07;;;;;;;;;;;;;;;8.64;100.00;100062.03;4995888;28;20015;-77
2021/12/14 04:34:33;;;;;;;;;;;;;;;8.87;100.00;100058.44;4995064;28;20286;-77
2021/12/14 04:36:59;;;;;;;;;;;;;;;8.84;100.00;100073.88;4995447;28;19917;-77
2021/12/14 04:39:34;;;;;;;;;;;;;;;9.14;100.00;100063.34;4994832;28;19914;-77
2021/12/14 04:53:15;;;;;;;;;;;;;;;9.26;100.00;100052.13;4997039;28;19928;-77
2021/12/14 04:55:41;;;;;;;;;;;;;;;8.87;100.00;100049.03;4977107;28;19918;-77
2021/12/14 04:58:06;;;;;;;;;;;;;;;9.09;100.00;100044.53;4973923;28;19922;-76
2021/12/14 05:00:44;;;;;;;;;;;;;;;9.15;100.00;100043.66;4990265;28;19914;-76
2021/12/14 05:03:14;;;;;;;;;;;;;;;9.03;100.00;100039.44;5002088;28;19964;-77
2021/12/14 05:05:46;;;;;;;;;;;;;;;9.17;100.00;100042.75;5011308;28;20350;-76
2021/12/14 05:10:39;;;;;;;;;;;;;;;8.95;100.00;100023.28;5000328;28;20294;-77
2021/12/14 05:13:04;;;;;;;;;;;;;;;8.96;100.00;100027.53;5010037;28;20305;-77
2021/12/14 05:15:30;;;;;;;;;;;;;;;8.83;100.00;100041.38;5015523;28;19917;-77
2021/12/14 05:17:55;;;;;;;;;;;;;;;8.91;100.00;100042.97;5014713;28;20901;-77
2021/12/14 05:20:20;;;;;;;;;;;;;;;9.03;100.00;100047.16;5028065;28;20314;-77
2021/12/14 05:22:47;;;;;;;;;;;;;;;9.00;100.00;100049.75;5017680;28;19970;-77
2021/12/14 05:25:13;;;;;;;;;;;;;;;9.33;100.00;100047.75;5017093;28;19913;-77
2021/12/14 05:27:40;;;;;;;;;;;;;;;8.79;100.00;100046.50;5034429;28;19943;-76
2021/12/14 05:30:10;;;;;;;;;;;;;;;8.58;100.00;100057.81;5035967;28;19917;-77
2021/12/14 05:32:36;;;;;;;;;;;;;;;8.85;100.00;100060.16;5018626;28;19917;-77
2021/12/14 05:35:01;;;;;;;;;;;;;;;9.06;100.00;100065.13;5016483;28;19917;-78
2021/12/14 05:37:31;;;;;;;;;;;;;;;9.15;100.00;100065.06;4998465;28;20272;-77
2021/12/14 05:40:04;;;;;;;;;;;;;;;8.85;100.00;100057.59;5007232;28;19949;-78
2021/12/14 05:45:16;;;;;;;;;;;;;;;9.07;100.00;100065.97;5001978;28;20001;-79
2021/12/14 05:47:43;;;;;;;;;;;;;;;9.17;100.00;100062.47;4971920;28;19933;-79
2021/12/14 05:50:12;;;;;;;;;;;;;;;9.08;100.00;100062.56;5004808;28;19917;-79
2021/12/14 05:52:37;;;;;;;;;;;;;;;9.21;100.00;100065.00;4988609;28;19917;-79
2021/12/14 05:55:03;;;;;;;;;;;;;;;9.26;100.00;100061.50;4986430;28;19939;-79
2021/12/14 05:57:29;;;;;;;;;;;;;;;9.19;100.00;100061.59;5006163;28;21083;-78
2021/12/14 05:59:54;;;;;;;;;;;;;;;9.48;100.00;100052.72;5005098;28;19977;-79
2021/12/14 06:02:20;;;;;;;;;;;;;;;9.15;100.00;100044.50;4998161;28;19917;-79
2021/12/14 06:04:46;;;;;;;;;;;;;;;9.25;100.00;100044.41;4988039;28;19922;-80
2021/12/14 06:07:12;;;;;;;;;;;;;;;9.33;100.00;100042.63;4994273;28;19913;-79
2021/12/14 06:09:44;;;;;;;;;;;;;;;8.83;100.00;100031.09;4972707;28;19971;-79
2021/12/14 06:12:20;;;;;;;;;;;;;;;8.67;100.00;100040.63;5008146;28;19913;-79
2021/12/14 06:14:55;;;;;;;;;;;;;;;8.99;100.00;100045.50;4988185;28;19932;-78
2021/12/14 06:17:29;;;;;;;;;;;;;;;8.90;100.00;100037.88;4973988;28;19960;-78
2021/12/14 06:19:56;;;;;;;;;;;;;;;9.20;100.00;100042.72;5005647;28;19963;-79
2021/12/14 06:22:22;;;;;;;;;;;;;;;9.20;100.00;100041.88;4992584;28;19920;-79
2021/12/14 06:24:49;;;;;;;;;;;;;;;8.75;100.00;100038.84;4988478;28;19924;-79
2021/12/14 06:27:16;;;;;;;;;;;;;;;8.89;100.00;100041.28;5006373;28;20311;-79
2021/12/14 06:29:43;;;;;;;;;;;;;;;9.15;100.00;100044.50;4988592;28;19920;-80
2021/12/14 06:32:14;;;;;;;;;;;;;;;9.24;100.00;100042.69;4988763;28;19979;-79
2021/12/14 06:34:42;;;;;;;;;;;;;;;9.16;100.00;100046.19;4988818;28;19921;-79
2021/12/14 06:37:29;;;;;;;;;;;;;;;9.36;100.00;100046.00;4990262;28;19917;-80
2021/12/14 06:40:12;;;;;;;;;;;;;;;8.74;100.00;100042.28;5006498;28;20418;-77
2021/12/14 06:42:42;;;;;;;;;;;;;;;8.92;100.00;100046.44;5006528;28;19924;-80
2021/12/14 06:45:09;;;;;;;;;;;;;;;7.96;100.00;100062.41;4988697;28;19922;-79
2021/12/14 06:47:35;;;;;;;;;;;;;;;8.29;94.74;100081.03;4993067;28;19914;-79
2021/12/14 06:50:03;;;;;;;;;;;;;;;7.97;94.21;100082.03;5007281;28;19917;-80
2021/12/14 06:52:29;;;;;;;;;;;;;;;8.24;89.15;100099.91;5006535;28;19971;-79
2021/12/14 06:54:54;;;;;;;;;;;;;;;7.97;88.83;100104.28;4988577;28;19929;-79
2021/12/14 06:57:20;;;;;;;;;;;;;;;7.88;88.66;100109.44;4992145;28;19923;-79
2021/12/14 06:59:45;;;;;;;;;;;;;;;8.23;85.24;100118.72;4976515;28;20302;-79
2021/12/14 07:02:12;;;;;;;;;;;;;;;8.02;81.80;100133.34;4989477;28;19972;-80
2021/12/14 07:04:47;;;;;;;;;;;;;;;7.64;77.70;100144.56;4975022;28;19917;-79
2021/12/14 07:07:14;;;;;;;;;;;;;;;7.35;71.76;100164.25;4991475;28;20438;-79
2021/12/14 07:09:40;;;;;;;;;;;;;;;7.35;63.50;100179.63;4991425;28;19917;-79
2021/12/14 07:12:11;;;;;;;;;;;;;;;7.40;57.83;100199.25;4974833;28;20387;-79
2021/12/14 07:14:36;;;;;;;;;;;;;;;7.40;53.93;100211.22;4985824;28;19922;-79
2021/12/14 07:17:16;;;;;;;;;;;;;;;7.35;48.54;100230.88;4986267;28;19923;-79
2021/12/14 07:19:41;;;;;;;;;;;;;;;7.52;43.56;100240.25;4996965;28;19918;-79
2021/12/14 07:22:08;;;;;;;;;;;;;;;7.54;41.94;100248.78;5002768;28;19926;-79
2021/12/14 07:24:35;;;;;;;;;;;;;;;8.21;39.05;100246.16;4970885;28;19913;-77
2021/12/14 07:27:23;;;;;;;;;;;;;;;8.30;44.15;100238.44;4991492;28;20409;-79
2021/12/14 07:29:50;;;;;;;;;;;;;;;7.91;44.12;100230.84;4991736;28;20811;-79
2021/12/14 07:32:20;;;;;;;;;;;;;;;8.29;47.90;100234.19;5005953;28;19961;-78
2021/12/14 07:34:46;;;;;;;;;;;;;;;8.17;49.29;100235.06;4988962;28;19921;-78
2021/12/14 07:37:11;;;;;;;;;;;;;;;8.58;50.61;100239.25;4974659;28;19964;-80
2021/12/14 07:39:36;;;;;;;;;;;;;;;8.37;56.14;100225.59;4992118;28;19918;-80
2021/12/14 07:42:02;;;;;;;;;;;;;;;8.32;56.25;100219.59;5006411;28;19932;-79
2021/12/14 07:44:29;;;;;;;;;;;;;;;8.22;54.44;100219.66;5007505;28;19943;-79
2021/12/14 07:46:59;;;;;;;;;;;;;;;8.21;52.91;100217.94;4972640;28;20342;-79
2021/12/14 07:49:28;;;;;;;;;;;;;;;8.23;52.76;100217.06;5006624;28;19944;-79
2021/12/14 07:51:56;;;;;;;;;;;;;;;7.81;53.75;100218.03;4990072;28;19917;-79
2021/12/14 07:54:28;;;;;;;;;;;;;;;7.77;52.83;100224.88;5006547;28;19952;-79
2021/12/14 07:57:04;;;;;;;;;;;;;;;8.38;50.08;100242.69;4989148;28;19914;-78
2021/12/14 07:59:34;;;;;;;;;;;;;;;8.22;54.46;100238.47;5006108;28;20374;-79
2021/12/14 08:02:08;;;;;;;;;;;;;;;7.89;53.56;100245.38;4991360;28;20370;-78
2021/12/14 08:04:34;;;;;;;;;;;;;;;7.59;50.14;100255.63;4992427;28;19948;-79
2021/12/14 08:06:59;;;;;;;;;;;;;;;7.63;45.23;100268.47;5006434;28;19971;-80
2021/12/14 08:09:33;;;;;;;;;;;;;;;7.58;42.89;100279.56;5007236;28;19924;-79
2021/12/14 08:11:58;;;;;;;;;;;;;;;7.86;41.28;100281.28;4982428;28;19936;-77
2021/12/14 08:14:25;;;;;;;;;;;;;;;7.84;41.53;100284.69;4998079;28;20004;-79
2021/12/14 08:17:01;;;;;;;;;;;;;;;7.71;39.44;100286.44;4974750;28;19940;-79
2021/12/14 08:19:35;;;;;;;;;;;;;;;8.05;36.57;100291.53;4998779;28;19917;-75
2021/12/14 08:22:05;;;;;;;;;;;;;;;7.75;40.72;100288.13;4970281;28;19921;-77
2021/12/14 08:24:30;;;;;;;;;;;;;;;7.70;37.52;100287.25;4993189;28;20295;-77
2021/12/14 08:26:57;;;;;;;;;;;;;;;8.14;37.57;100282.13;4983727;28;20029;-77
2021/12/14 08:29:24;;;;;;;;;;;;;;;8.10;38.11;100280.41;5010806;28;19921;-77
2021/12/14 08:31:49;;;;;;;;;;;;;;;8.06;40.46;100273.56;5000440;28;19929;-78
2021/12/14 08:34:20;;;;;;;;;;;;;;;7.82;41.91;100274.44;4983793;28;20494;-76
2021/12/14 08:36:47;;;;;;;;;;;;;;;7.94;39.59;100269.31;5011723;28;19918;-77
2021/12/14 08:39:12;;;;;;;;;;;;;;;8.34;38.75;100269.22;4992803;28;19914;-77
2021/12/14 08:41:46;;;;;;;;;;;;;;;8.13;42.53;100265.00;5012212;28;20063;-76
2021/12/14 08:44:12;;;;;;;;;;;;;;;8.37;44.20;100260.69;4992939;28;19921;-77
2021/12/14 08:46:37;;;;;;;;;;;;;;;8.48;47.12;100256.38;5015090;28;20242;-78
2021/12/14 08:49:05;;;;;;;;;;;;;;;8.30;50.55;100243.56;4988926;28;20375;-77
2021/12/14 08:51:34;;;;;;;;;;;;;;;8.33;49.54;100241.88;5004939;28;19921;-77
2021/12/14 08:54:01;;;;;;;;;;;;;;;8.45;52.68;100240.16;5014107;28;19960;-77
2021/12/14 08:56:27;;;;;;;;;;;;;;;8.10;52.17;100228.25;5002811;28;19964;-77
2021/12/14 08:58:52;;;;;;;;;;;;;;;8.24;50.15;100235.91;4995363;28;19967;-78
2021/12/14 09:01:19;;;;;;;;;;;;;;;8.47;51.86;100234.16;4996438;28;19921;-76
2021/12/14 09:03:52;;;;;;;;;;;;;;;8.36;53.44;100230.72;5013700;28;19925;-78
2021/12/14 09:06:19;;;;;;;;;;;;;;;8.82;55.02;100217.72;5002396;28;20334;-77
2021/12/14 09:08:45;;;;;;;;;;;;;;;8.88;61.74;100204.00;4994231;28;19957;-77
2021/12/14 09:11:13;;;;;;;;;;;;;;;8.82;65.37;100193.75;5003776;28;19921;-76
2021/12/14 09:13:38;;;;;;;;;;;;;;;8.56;68.01;100187.91;4994546;28;19925;-77
2021/12/14 09:16:07;;;;;;;;;;;;;;;8.61;65.43;100184.47;5002254;28;20560;-78
2021/12/14 09:18:34;;;;;;;;;;;;;;;8.42;69.06;100186.28;5002840;28;19924;-77
2021/12/14 09:21:01;;;;;;;;;;;;;;;8.11;64.23;100188.91;4994610;28;19913;-76
2021/12/14 09:23:29;;;;;;;;;;;;;;;8.33;61.94;100195.66;5013625;28;19961;-77
2021/12/14 09:25:55;;;;;;;;;;;;;;;8.56;59.54;100197.31;5014234;28;19918;-76
2021/12/14 09:28:20;;;;;;;;;;;;;;;7.93;63.54;100197.47;4994773;28;19947;-76
2021/12/14 09:30:48;;;;;;;;;;;;;;;8.19;57.02;100212.84;5000748;28;20375;-75
2021/12/14 09:33:14;;;;;;;;;;;;;;;8.73;56.04;100213.47;4989044;28;19917;-77
2021/12/14 09:35:40;;;;;;;;;;;;;;;8.44;59.84;100226.47;5003470;28;19939;-77
2021/12/14 09:38:06;;;;;;;;;;;;;;;7.88;57.42;100230.84;5003405;28;19924;-77
2021/12/14 09:40:34;;;;;;;;;;;;;;;7.87;54.87;100226.56;5002484;28;20107;-76
2021/12/14 09:42:59;;;;;;;;;;;;;;;8.05;52.36;100219.69;5013344;28;19921;-77
2021/12/14 09:45:33;;;;;;;;;;;;;;;7.91;51.42;100227.41;4995364;28;19913;-77
2021/12/14 09:47:59;;;;;;;;;;;;;;;8.78;49.48;100234.00;4996291;28;19940;-77
2021/12/14 09:50:26;;;;;;;;;;;;;;;8.53;52.42;100225.56;4995668;28;19917;-76
2021/12/14 09:52:52;;;;;;;;;;;;;;;8.04;53.82;100220.56;4995600;28;19918;-77
2021/12/14 09:55:19;;;;;;;;;;;;;;;7.99;52.95;100224.84;5012543;28;19927;-77
2021/12/14 09:57:46;;;;;;;;;;;;;;;8.00;50.58;100231.69;4996194;28;19921;-77
2021/12/14 10:00:17;;;;;;;;;;;;;;;8.08;53.19;100220.56;4994908;28;19918;-77
2021/12/14 10:02:43;;;;;;;;;;;;;;;8.48;49.47;100230.72;5004007;28;19917;-77
2021/12/14 10:05:12;;;;;;;;;;;;;;;8.24;48.12;100230.78;5014041;28;19968;-75
2021/12/14 10:07:37;;;;;;;;;;;;;;;8.41;47.74;100230.75;4994646;28;19920;-76
2021/12/14 10:10:04;;;;;;;;;;;;;;;8.30;48.35;100230.75;5013438;28;19917;-77
2021/12/14 10:15:11;;;;;;;;;;;;;;;8.26;53.74;100209.38;5013656;28;19925;-78
2021/12/14 10:17:39;;;;;;;;;;;;;;;8.50;52.84;100218.72;4996145;28;19986;-77
2021/12/14 10:20:04;;;;;;;;;;;;;;;8.12;51.54;100216.28;4989881;28;19917;-76
2021/12/14 10:22:31;;;;;;;;;;;;;;;8.49;50.47;100229.88;4978337;28;20139;-77
2021/12/14 10:24:58;;;;;;;;;;;;;;;8.56;51.92;100223.00;5002520;28;19917;-78
2021/12/14 10:27:24;;;;;;;;;;;;;;;8.32;52.56;100208.50;4996089;28;19964;-77
2021/12/14 10:29:50;;;;;;;;;;;;;;;8.62;52.21;100201.56;4996570;28;20594;-77
2021/12/14 10:32:20;;;;;;;;;;;;;;;8.21;55.71;100200.84;4995376;28;19918;-78
2021/12/14 10:34:50;;;;;;;;;;;;;;;8.62;52.90;100202.44;4996501;28;19924;-77
2021/12/14 10:37:21;;;;;;;;;;;;;;;8.63;53.52;100188.72;4996678;28;19914;-78
2021/12/14 10:43:15;;;;;;;;;;;;;;;9.20;62.96;100165.25;5002451;28;19914;-76
2021/12/14 10:45:15;;;;;;;;;;;;;;;9.42;67.54;100150.50;4993279;28;19913;-77
2021/12/14 10:47:41;;;;;;;;;;;;;;;9.63;74.19;100142.59;4995226;28;19924;-76
2021/12/14 10:50:08;;;;;;;;;;;;;;;9.51;77.77;100145.28;4999579;28;19913;-77
2021/12/14 10:52:34;;;;;;;;;;;;;;;9.00;76.79;100131.97;5012472;28;19917;-75
2021/12/14 10:55:03;;;;;;;;;;;;;;;8.41;75.11;100148.59;4996028;28;19924;-76
2021/12/14 10:57:30;;;;;;;;;;;;;;;8.84;71.00;100143.25;4995136;28;19968;-75
2021/12/14 10:59:55;;;;;;;;;;;;;;;8.56;72.71;100136.53;5003655;28;19913;-77
2021/12/14 11:02:23;;;;;;;;;;;;;;;9.00;65.88;100147.41;4994455;28;19928;-77
2021/12/14 11:04:55;;;;;;;;;;;;;;;8.72;68.09;100149.31;4979652;28;20383;-76
2021/12/14 11:07:23;;;;;;;;;;;;;;;8.78;65.09;100147.56;5012876;28;19914;-76
2021/12/14 11:09:55;;;;;;;;;;;;;;;8.44;68.39;100151.16;5012894;28;19920;-77
2021/12/14 11:12:32;;;;;;;;;;;;;;;8.73;62.97;100154.41;4995842;28;19963;-77
2021/12/14 11:14:59;;;;;;;;;;;;;;;8.52;63.74;100154.53;5000126;28;19964;-76
2021/12/14 11:20:20;;;;;;;;;;;;;;;8.53;58.87;100166.50;4997761;28;20286;-76
2021/12/14 11:22:45;;;;;;;;;;;;;;;9.26;63.34;100151.47;4995240;28;20005;-77
2021/12/14 11:25:13;;;;;;;;;;;;;;;9.19;63.98;100145.53;4996215;28;19968;-77
2021/12/14 11:27:40;;;;;;;;;;;;;;;9.59;68.27;100133.19;5012424;28;19931;-77
2021/12/14 11:30:19;;;;;;;;;;;;;;;9.27;72.66;100132.63;4994941;28;19944;-76
2021/12/14 11:33:06;;;;;;;;;;;;;;;8.99;71.94;100133.72;4995780;28;19918;-77
2021/12/14 11:35:31;;;;;;;;;;;;;;;9.16;70.14;100132.72;5002516;28;20008;-76
2021/12/14 11:37:58;;;;;;;;;;;;;;;9.62;75.23;100117.75;5000520;28;19940;-77
2021/12/14 11:40:24;;;;;;;;;;;;;;;9.23;78.04;100118.94;5012982;28;19914;-77
2021/12/14 11:42:51;;;;;;;;;;;;;;;8.97;77.66;100111.47;5013772;28;20393;-78
2021/12/14 11:45:20;;;;;;;;;;;;;;;8.78;76.66;100121.88;5001983;28;19971;-78
2021/12/14 11:47:49;;;;;;;;;;;;;;;8.90;70.40;100120.09;5013135;28;19920;-76
2021/12/14 11:50:20;;;;;;;;;;;;;;;9.11;75.59;100125.03;4983208;28;20016;-77
2021/12/14 11:53:03;;;;;;;;;;;;;;;9.00;76.19;100119.13;5009500;28;19953;-77
2021/12/14 11:55:29;;;;;;;;;;;;;;;9.27;73.73;100114.66;4994335;28;19917;-77
2021/12/14 11:58:16;;;;;;;;;;;;;;;8.70;75.07;100122.78;5012866;28;19921;-77
2021/12/14 12:00:44;;;;;;;;;;;;;;;9.40;69.40;100126.53;4996030;28;19914;-77
2021/12/14 12:03:17;;;;;;;;;;;;;;;9.58;72.25;100121.22;4994341;28;20397;-77
2021/12/14 12:05:58;;;;;;;;;;;;;;;9.56;77.96;100116.94;4994701;28;19925;-77
2021/12/14 12:11:08;;;;;;;;;;;;;;;9.68;84.99;100115.97;4994696;28;19921;-77
2021/12/14 12:13:35;;;;;;;;;;;;;;;9.18;90.16;100108.72;5001661;28;19917;-77
2021/12/14 12:16:08;;;;;;;;;;;;;;;9.59;87.43;100102.31;4993530;28;19921;-77
2021/12/14 12:18:33;;;;;;;;;;;;;;;10.01;88.37;100099.28;4991949;28;20387;-77
2021/12/14 12:20:59;;;;;;;;;;;;;;;9.42;91.43;100096.53;4983309;28;19920;-77
2021/12/14 12:23:26;;;;;;;;;;;;;;;9.23;93.96;100092.41;5001747;28;19945;-76
2021/12/14 12:25:57;;;;;;;;;;;;;;;9.75;89.73;100092.72;4998617;28;19986;-77
2021/12/14 12:28:22;;;;;;;;;;;;;;;9.56;89.58;100086.09;4972963;28;19932;-77
2021/12/14 12:30:48;;;;;;;;;;;;;;;9.70;90.21;100094.50;5010545;28;19917;-77
2021/12/14 12:33:23;;;;;;;;;;;;;;;9.76;89.24;100096.16;4992975;28;19924;-76
2021/12/14 12:35:51;;;;;;;;;;;;;;;9.67;95.24;100084.25;5010258;28;19922;-77
2021/12/14 12:38:19;;;;;;;;;;;;;;;9.77;97.96;100090.16;5010352;28;20003;-77
2021/12/14 12:40:50;;;;;;;;;;;;;;;10.30;93.74;100086.09;5000376;28;20015;-77
2021/12/14 12:43:18;;;;;;;;;;;;;;;9.72;100.00;100077.34;4983354;28;19972;-77
2021/12/14 12:45:51;;;;;;;;;;;;;;;10.12;100.00;100071.69;4984692;28;20387;-76
2021/12/14 12:48:37;;;;;;;;;;;;;;;9.88;100.00;100067.72;5010235;28;20291;-77
2021/12/14 12:51:02;;;;;;;;;;;;;;;10.36;100.00;100070.56;5010335;28;19961;-77
2021/12/14 12:53:28;;;;;;;;;;;;;;;10.16;100.00;100065.63;5010488;28;19956;-77
2021/12/14 12:55:53;;;;;;;;;;;;;;;10.30;100.00;100059.50;5010493;28;20013;-76
2021/12/14 12:58:19;;;;;;;;;;;;;;;10.01;100.00;100069.28;4999411;28;19940;-77
2021/12/14 13:00:52;;;;;;;;;;;;;;;10.65;100.00;100062.41;5000398;28;19936;-77
2021/12/14 13:03:19;;;;;;;;;;;;;;;10.32;100.00;100068.88;5009619;28;20671;-75
2021/12/14 13:05:51;;;;;;;;;;;;;;;10.15;100.00;100075.94;4992212;28;20354;-77
2021/12/14 13:08:22;;;;;;;;;;;;;;;10.67;100.00;100072.66;5008670;28;20437;-77
2021/12/14 13:11:06;;;;;;;;;;;;;;;10.63;100.00;100068.47;5010227;28;19917;-77
2021/12/14 13:13:32;;;;;;;;;;;;;;;10.75;100.00;100067.41;5009865;28;19963;-77
2021/12/14 13:15:58;;;;;;;;;;;;;;;10.59;100.00;100074.53;5009143;28;20385;-77
2021/12/14 13:18:34;;;;;;;;;;;;;;;9.87;100.00;100078.88;4979730;28;19944;-77
2021/12/14 13:21:15;;;;;;;;;;;;;;;10.19;100.00;100082.75;5009711;28;19924;-77
2021/12/14 13:23:45;;;;;;;;;;;;;;;10.27;100.00;100086.09;4981997;28;19921;-77